Potash Point, Vermont
Current Conditions -  °F | °C
As of 6:55 AM on Sunday 21 Dec 2014 (Local Time) from K6B0 Reporting Station
Overcast Overcast  
Wind Chill: 20°   Ceiling: 3200
Heat Index: 20°   Visibility: 10mi
Dew Point: 20°   Wind: 0mph
Humidity: 100%   Direction: NA
Pressure: 30.32"   Gusts: NA
Location:  44.0804°N, 73.3324°W
Report Text: K6B0 211155Z AUTO 00000KT 10SM SCT008 OVC032 M07/M07 A3032 RMK AO2 T10681068 11067 21083
Loading
Personal Weather Stations






























Interactive Weather Map New forecast layout! Learn more

10-Day Weather Forecast

Advertisements
Track Severe Weather on mobile